createdAt,value
2022-10-01T00:04:59.473Z,29.33
2022-10-01T00:10:02.995Z,29.20
2022-10-01T00:15:10.691Z,29.02
2022-10-01T00:20:17.062Z,28.86
2022-10-01T00:25:20.621Z,28.67
2022-10-01T00:30:25.775Z,28.55
2022-10-01T00:35:29.313Z,28.45
2022-10-01T00:40:32.859Z,28.29
2022-10-01T00:45:38.165Z,28.14
2022-10-01T00:50:41.771Z,28.00
2022-10-01T00:55:47.191Z,27.86
2022-10-01T01:00:54.830Z,27.66
2022-10-01T01:05:58.356Z,27.62
2022-10-01T01:11:09.569Z,27.54
2022-10-01T01:16:20.911Z,27.43
2022-10-01T01:21:30.018Z,27.12
2022-10-01T01:26:46.805Z,26.26
2022-10-01T01:31:54.448Z,25.67
2022-10-01T01:37:02.282Z,25.03
2022-10-01T01:42:10.046Z,24.56
2022-10-01T01:47:15.973Z,24.20
2022-10-01T01:52:19.785Z,23.66
2022-10-01T01:57:23.512Z,23.18
2022-10-01T02:02:33.492Z,22.97
2022-10-01T02:08:04.359Z,22.51
2022-10-01T02:13:20.083Z,22.32
2022-10-01T02:18:30.546Z,22.12
2022-10-01T02:23:40.269Z,22.12
2022-10-01T02:28:46.489Z,21.85
2022-10-01T02:33:54.361Z,21.63
2022-10-01T02:39:00.100Z,21.39
2022-10-01T02:44:09.231Z,21.39
2022-10-01T02:49:15.748Z,21.33
2022-10-01T02:54:26.584Z,21.23
2022-10-01T02:59:30.179Z,21.07
2022-10-01T03:04:36.070Z,20.94
2022-10-01T03:09:39.576Z,20.71
2022-10-01T03:14:43.286Z,20.65
2022-10-01T03:19:48.461Z,20.61
2022-10-01T03:24:53.020Z,20.46
2022-10-01T03:29:56.587Z,20.23
2022-10-01T03:35:02.700Z,20.27
2022-10-01T03:40:07.373Z,20.14
2022-10-01T03:45:11.444Z,20.03
2022-10-01T03:50:16.863Z,19.91
2022-10-01T03:55:20.426Z,19.81
2022-10-01T04:00:23.977Z,19.73
2022-10-01T04:05:29.156Z,19.73
2022-10-01T04:10:32.734Z,19.82
2022-10-01T04:15:36.648Z,19.64
2022-10-01T04:20:43.092Z,19.67
2022-10-01T04:25:46.680Z,19.43
2022-10-01T04:30:50.234Z,19.37
2022-10-01T04:35:55.410Z,19.16
2022-10-01T04:40:58.973Z,19.14
2022-10-01T04:46:02.570Z,19.02
2022-10-01T04:51:09.078Z,18.87
2022-10-01T04:56:12.622Z,18.71
2022-10-01T05:01:16.331Z,18.60
2022-10-01T05:06:21.572Z,18.32
2022-10-01T05:11:25.134Z,18.19
2022-10-01T05:16:28.741Z,18.06
2022-10-01T05:21:35.180Z,18.04
2022-10-01T05:26:38.901Z,18.10
2022-10-01T05:31:42.461Z,17.96
2022-10-01T05:36:47.680Z,17.69
2022-10-01T05:41:51.246Z,17.62
2022-10-01T05:46:54.857Z,17.61
2022-10-01T05:52:01.256Z,17.58
2022-10-01T05:57:06.021Z,17.47
2022-10-01T06:02:10.819Z,17.45
2022-10-01T06:07:16.043Z,17.38
2022-10-01T06:12:19.993Z,17.32
2022-10-01T06:17:23.711Z,17.23
2022-10-01T06:22:28.877Z,17.14
2022-10-01T06:27:32.421Z,17.23
2022-10-01T06:32:36.028Z,17.01
2022-10-01T06:37:41.286Z,16.93
2022-10-01T06:42:50.946Z,16.91
2022-10-01T06:47:56.634Z,16.96
2022-10-01T06:53:02.328Z,16.82
2022-10-01T06:58:06.082Z,16.84
2022-10-01T07:03:12.706Z,16.72
2022-10-01T07:08:17.975Z,16.55
2022-10-01T07:13:21.498Z,16.62
2022-10-01T07:18:25.099Z,16.35
2022-10-01T07:23:30.982Z,16.28
2022-10-01T07:28:34.533Z,16.18
2022-10-01T07:33:38.090Z,16.26
2022-10-01T07:38:43.387Z,16.26
2022-10-01T07:43:47.834Z,16.24
2022-10-01T07:48:51.400Z,16.26
2022-10-01T07:53:56.877Z,16.17
2022-10-01T07:59:00.609Z,16.07
2022-10-01T08:04:05.428Z,16.05
2022-10-01T08:09:10.582Z,16.00
2022-10-01T08:14:14.231Z,15.97
2022-10-01T08:19:40.108Z,15.79
2022-10-01T08:24:45.277Z,15.83
2022-10-01T08:29:48.784Z,15.88
2022-10-01T08:34:56.415Z,15.68
2022-10-01T08:40:02.191Z,15.58
2022-10-01T08:45:12.212Z,15.49
2022-10-01T08:50:29.349Z,15.64
2022-10-01T08:55:37.468Z,15.56
2022-10-01T09:00:45.722Z,15.53
2022-10-01T09:06:04.060Z,15.54
2022-10-01T09:11:18.228Z,15.45
2022-10-01T09:16:30.774Z,15.42
2022-10-01T09:21:51.473Z,15.40
2022-10-01T09:26:56.826Z,15.33
2022-10-01T09:32:02.773Z,15.28
2022-10-01T09:37:16.286Z,15.23
2022-10-01T09:42:25.678Z,15.18
2022-10-01T09:47:29.261Z,15.14
2022-10-01T09:52:35.727Z,15.01
2022-10-01T09:57:45.568Z,15.09
2022-10-01T10:02:50.801Z,15.05
2022-10-01T10:07:57.993Z,15.07
2022-10-01T10:13:05.950Z,14.91
2022-10-01T10:18:13.744Z,14.90
2022-10-01T10:23:18.634Z,14.76
2022-10-01T10:28:25.137Z,14.84
2022-10-01T10:33:28.803Z,14.73
2022-10-01T10:38:35.322Z,14.65
2022-10-01T10:43:40.565Z,14.66
2022-10-01T10:48:44.698Z,14.66
2022-10-01T10:53:48.348Z,14.58
2022-10-01T10:58:53.792Z,14.58
2022-10-01T11:04:01.111Z,14.52
2022-10-01T11:09:11.191Z,14.44
2022-10-01T11:14:29.171Z,14.47
2022-10-01T11:19:45.938Z,14.35
2022-10-01T11:25:09.724Z,14.33
2022-10-01T11:30:19.710Z,14.28
2022-10-01T11:35:42.741Z,14.24
2022-10-01T11:40:50.679Z,14.22
2022-10-01T11:46:00.997Z,14.19
2022-10-01T11:51:10.654Z,14.22
2022-10-01T11:56:18.337Z,14.01
2022-10-01T12:01:30.931Z,13.98
2022-10-01T12:06:40.757Z,14.01
2022-10-01T12:11:52.672Z,14.02
2022-10-01T12:17:05.225Z,14.02
2022-10-01T12:22:14.845Z,14.06
2022-10-01T12:27:36.206Z,14.16
2022-10-01T12:33:04.665Z,14.10
2022-10-01T12:38:21.016Z,14.06
2022-10-01T12:43:48.598Z,14.02
2022-10-01T12:49:01.996Z,13.91
2022-10-01T12:54:13.886Z,14.01
2022-10-01T12:59:36.698Z,13.91
2022-10-01T13:05:02.296Z,13.95
2022-10-01T13:10:19.700Z,13.87
2022-10-01T13:15:26.429Z,13.70
2022-10-01T13:20:39.345Z,13.77
2022-10-01T13:26:01.177Z,13.77
2022-10-01T13:31:13.641Z,13.79
2022-10-01T13:36:30.180Z,13.79
2022-10-01T13:41:35.233Z,13.88
2022-10-01T13:46:51.454Z,13.97
2022-10-01T13:51:57.579Z,13.95
2022-10-01T13:57:09.284Z,14.01
2022-10-01T14:02:37.487Z,13.95
2022-10-01T14:07:46.316Z,13.94
2022-10-01T14:12:50.883Z,13.96
2022-10-01T14:17:55.910Z,13.88
2022-10-01T14:23:11.606Z,13.80
2022-10-01T14:28:32.494Z,13.84
2022-10-01T14:34:03.893Z,13.78
2022-10-01T14:39:16.537Z,13.71
2022-10-01T14:44:25.939Z,13.79
2022-10-01T14:49:30.715Z,13.84
2022-10-01T14:54:44.401Z,13.94
2022-10-01T14:59:49.560Z,13.82
2022-10-01T15:04:55.243Z,13.84
2022-10-01T15:10:09.401Z,13.90
2022-10-01T15:15:25.499Z,13.79
2022-10-01T15:20:29.225Z,13.78
2022-10-01T15:25:34.535Z,14.26
2022-10-01T15:30:38.164Z,14.45
2022-10-01T15:35:42.436Z,14.64
2022-10-01T15:40:53.775Z,14.62
2022-10-01T15:46:18.255Z,14.61
2022-10-01T15:51:26.486Z,14.83
2022-10-01T15:56:32.209Z,14.86
2022-10-01T16:01:40.922Z,15.01
2022-10-01T16:06:47.422Z,15.20
2022-10-01T16:11:57.352Z,15.34
2022-10-01T16:17:31.941Z,15.34
2022-10-01T16:22:36.620Z,15.45
2022-10-01T16:27:47.852Z,15.61
2022-10-01T16:32:51.402Z,15.81
2022-10-01T16:37:56.437Z,16.09
2022-10-01T16:43:03.623Z,16.43
2022-10-01T16:48:13.263Z,16.66
2022-10-01T16:53:19.078Z,17.01
2022-10-01T16:58:23.514Z,17.26
2022-10-01T17:03:27.066Z,17.51
2022-10-01T17:08:30.619Z,18.06
2022-10-01T17:13:36.201Z,18.34
2022-10-01T17:18:39.751Z,18.70
2022-10-01T17:23:43.346Z,19.04
2022-10-01T17:28:48.578Z,19.73
2022-10-01T17:33:52.101Z,20.04
2022-10-01T17:38:55.661Z,20.79
2022-10-01T17:44:01.014Z,20.78
2022-10-01T17:49:04.913Z,21.44
2022-10-01T17:54:08.448Z,21.68
2022-10-01T17:59:13.645Z,21.81
2022-10-01T18:04:17.201Z,21.67
2022-10-01T18:09:21.386Z,21.59
2022-10-01T18:14:26.646Z,22.09
2022-10-01T18:24:53.811Z,22.84
2022-10-01T18:29:59.108Z,22.73
2022-10-01T18:35:04.144Z,22.58
2022-10-01T18:40:13.173Z,22.63
2022-10-01T18:45:23.326Z,22.62
2022-10-01T18:50:36.808Z,22.59
2022-10-01T18:56:18.094Z,22.84
2022-10-01T19:01:31.623Z,23.29
2022-10-01T19:06:48.410Z,23.06
2022-10-01T19:12:04.023Z,23.23
2022-10-01T19:17:27.824Z,23.18
2022-10-01T19:22:41.386Z,23.12
2022-10-01T19:27:59.420Z,23.29
2022-10-01T19:33:09.002Z,23.51
2022-10-01T19:38:18.844Z,23.68
2022-10-01T19:43:30.011Z,23.62
2022-10-01T19:48:44.694Z,23.00
2022-10-01T19:53:51.101Z,23.39
2022-10-01T19:58:54.733Z,23.47
2022-10-01T20:04:03.342Z,23.55
2022-10-01T20:09:16.961Z,23.59
2022-10-01T20:14:30.063Z,23.70
2022-10-01T20:19:42.904Z,23.44
2022-10-01T20:24:56.110Z,23.67
2022-10-01T20:30:04.857Z,23.49
2022-10-01T20:35:25.761Z,23.01
2022-10-01T21:38:58.543Z,24.42
2022-10-01T21:44:44.278Z,24.43
2022-10-01T21:50:00.337Z,24.43
2022-10-01T21:55:30.104Z,24.38
2022-10-01T22:00:33.812Z,24.38
2022-10-01T22:05:44.221Z,24.22
2022-10-01T22:10:52.278Z,24.11
2022-10-01T22:16:01.210Z,23.82
2022-10-01T22:21:11.361Z,23.65
2022-10-01T22:26:18.989Z,23.62
2022-10-01T22:31:26.724Z,23.34
2022-10-01T22:36:36.118Z,23.22
2022-10-01T22:41:45.716Z,23.13
2022-10-01T22:47:17.503Z,23.21
2022-10-01T22:52:29.288Z,23.31
2022-10-01T22:58:04.231Z,23.12
2022-10-01T23:03:19.603Z,22.38
2022-10-01T23:08:28.631Z,22.20
2022-10-01T23:13:40.599Z,22.07
2022-10-01T23:18:53.660Z,22.03
2022-10-01T23:24:09.441Z,22.07
2022-10-01T23:29:36.638Z,22.16
2022-10-01T23:34:51.829Z,21.97
2022-10-01T23:39:58.783Z,22.08
2022-10-01T23:45:24.024Z,22.15
2022-10-01T23:50:31.076Z,22.19
2022-10-01T23:55:50.773Z,22.20
